sensor_id;sensor_type;location;lat;lon;timestamp;temperature;humidity
17762;DHT22;9005;48.838;10.112;2024-03-23T00:53:56;6.60;76.80
17762;DHT22;9005;48.838;10.112;2024-03-23T00:56:23;6.50;77.10
17762;DHT22;9005;48.838;10.112;2024-03-23T00:58:49;6.50;77.20
17762;DHT22;9005;48.838;10.112;2024-03-23T01:01:16;6.50;77.30
17762;DHT22;9005;48.838;10.112;2024-03-23T01:03:42;6.50;77.20
17762;DHT22;9005;48.838;10.112;2024-03-23T01:06:09;6.50;77.00
17762;DHT22;9005;48.838;10.112;2024-03-23T01:08:34;6.50;76.80
17762;DHT22;9005;48.838;10.112;2024-03-23T01:11:03;6.50;77.10
17762;DHT22;9005;48.838;10.112;2024-03-23T01:13:28;6.40;77.20
17762;DHT22;9005;48.838;10.112;2024-03-23T01:15:56;6.40;77.30
17762;DHT22;9005;48.838;10.112;2024-03-23T01:18:22;6.30;77.50
17762;DHT22;9005;48.838;10.112;2024-03-23T01:20:51;6.30;77.60
17762;DHT22;9005;48.838;10.112;2024-03-23T01:23:17;6.30;77.90
17762;DHT22;9005;48.838;10.112;2024-03-23T01:25:51;6.40;77.80
17762;DHT22;9005;48.838;10.112;2024-03-23T01:28:18;6.50;77.20
17762;DHT22;9005;48.838;10.112;2024-03-23T01:30:45;6.70;76.00
17762;DHT22;9005;48.838;10.112;2024-03-23T01:33:11;6.80;75.30
17762;DHT22;9005;48.838;10.112;2024-03-23T01:35:37;7.00;74.70
17762;DHT22;9005;48.838;10.112;2024-03-23T01:38:03;7.10;73.80
17762;DHT22;9005;48.838;10.112;2024-03-23T01:40:30;7.10;73.50
17762;DHT22;9005;48.838;10.112;2024-03-23T01:42:58;7.20;73.30
17762;DHT22;9005;48.838;10.112;2024-03-23T01:45:26;7.20;73.10
17762;DHT22;9005;48.838;10.112;2024-03-23T01:47:52;7.20;72.70
17762;DHT22;9005;48.838;10.112;2024-03-23T01:50:19;7.20;72.60
17762;DHT22;9005;48.838;10.112;2024-03-23T01:52:46;7.20;72.50
17762;DHT22;9005;48.838;10.112;2024-03-23T01:55:13;7.20;72.30
17762;DHT22;9005;48.838;10.112;2024-03-23T01:57:38;7.20;72.40
17762;DHT22;9005;48.838;10.112;2024-03-23T02:00:06;7.30;72.20
17762;DHT22;9005;48.838;10.112;2024-03-23T02:02:33;7.30;72.40
17762;DHT22;9005;48.838;10.112;2024-03-23T02:05:00;7.30;72.40
17762;DHT22;9005;48.838;10.112;2024-03-23T02:07:26;7.40;72.40
17762;DHT22;9005;48.838;10.112;2024-03-23T02:09:53;7.40;71.90
17762;DHT22;9005;48.838;10.112;2024-03-23T02:12:19;7.40;71.80
17762;DHT22;9005;48.838;10.112;2024-03-23T02:14:46;7.50;71.70
17762;DHT22;9005;48.838;10.112;2024-03-23T02:17:13;7.50;71.20
17762;DHT22;9005;48.838;10.112;2024-03-23T02:19:41;7.50;71.20
17762;DHT22;9005;48.838;10.112;2024-03-23T02:22:06;7.50;71.20
17762;DHT22;9005;48.838;10.112;2024-03-23T02:24:37;7.60;70.90
17762;DHT22;9005;48.838;10.112;2024-03-23T02:27:03;7.70;70.80
17762;DHT22;9005;48.838;10.112;2024-03-23T02:29:29;7.70;70.40
17762;DHT22;9005;48.838;10.112;2024-03-23T02:31:55;7.80;70.50
17762;DHT22;9005;48.838;10.112;2024-03-23T02:34:24;7.90;70.30
17762;DHT22;9005;48.838;10.112;2024-03-23T02:36:49;7.90;70.20
17762;DHT22;9005;48.838;10.112;2024-03-23T02:39:16;7.90;70.20
17762;DHT22;9005;48.838;10.112;2024-03-23T02:41:43;7.90;70.00
17762;DHT22;9005;48.838;10.112;2024-03-23T02:44:10;7.80;70.40
17762;DHT22;9005;48.838;10.112;2024-03-23T02:46:37;7.80;70.40
17762;DHT22;9005;48.838;10.112;2024-03-23T02:49:04;7.90;70.50
17762;DHT22;9005;48.838;10.112;2024-03-23T02:51:30;7.90;70.70
17762;DHT22;9005;48.838;10.112;2024-03-23T02:53:56;8.20;69.70
17762;DHT22;9005;48.838;10.112;2024-03-23T02:56:22;7.90;70.60
17762;DHT22;9005;48.838;10.112;2024-03-23T02:58:50;8.00;70.50
17762;DHT22;9005;48.838;10.112;2024-03-23T03:01:16;8.60;69.10
17762;DHT22;9005;48.838;10.112;2024-03-23T03:03:43;8.30;69.50
17762;DHT22;9005;48.838;10.112;2024-03-23T03:06:09;8.40;69.40
17762;DHT22;9005;48.838;10.112;2024-03-23T03:08:36;8.40;69.40
17762;DHT22;9005;48.838;10.112;2024-03-23T03:11:02;8.50;69.30
17762;DHT22;9005;48.838;10.112;2024-03-23T03:13:28;8.50;68.60
17762;DHT22;9005;48.838;10.112;2024-03-23T03:15:55;8.60;68.70
17762;DHT22;9005;48.838;10.112;2024-03-23T03:18:23;8.70;68.70
17762;DHT22;9005;48.838;10.112;2024-03-23T03:20:49;8.70;68.50
17762;DHT22;9005;48.838;10.112;2024-03-23T03:23:16;8.80;68.40
17762;DHT22;9005;48.838;10.112;2024-03-23T03:25:43;9.40;66.90
17762;DHT22;9005;48.838;10.112;2024-03-23T03:28:10;8.90;67.80
17762;DHT22;9005;48.838;10.112;2024-03-23T03:30:35;8.90;68.10
17762;DHT22;9005;48.838;10.112;2024-03-23T03:33:04;8.90;67.80
17762;DHT22;9005;48.838;10.112;2024-03-23T03:35:29;9.00;67.50
17762;DHT22;9005;48.838;10.112;2024-03-23T03:37:56;9.20;67.10
17762;DHT22;9005;48.838;10.112;2024-03-23T03:40:22;9.20;67.00
17762;DHT22;9005;48.838;10.112;2024-03-23T03:42:50;9.30;66.90
17762;DHT22;9005;48.838;10.112;2024-03-23T03:45:15;9.80;65.90
17762;DHT22;9005;48.838;10.112;2024-03-23T03:47:42;9.40;66.90
17762;DHT22;9005;48.838;10.112;2024-03-23T03:50:10;9.50;66.70
17762;DHT22;9005;48.838;10.112;2024-03-23T03:52:36;9.40;66.60
17762;DHT22;9005;48.838;10.112;2024-03-23T03:55:03;9.40;67.00
17762;DHT22;9005;48.838;10.112;2024-03-23T03:57:31;9.30;67.00
17762;DHT22;9005;48.838;10.112;2024-03-23T03:59:56;9.30;67.50
17762;DHT22;9005;48.838;10.112;2024-03-23T04:02:23;9.30;67.30
17762;DHT22;9005;48.838;10.112;2024-03-23T04:04:49;9.40;67.40
17762;DHT22;9005;48.838;10.112;2024-03-23T04:07:17;9.40;67.40
17762;DHT22;9005;48.838;10.112;2024-03-23T04:09:43;9.40;67.60
17762;DHT22;9005;48.838;10.112;2024-03-23T04:12:10;9.40;67.60
17762;DHT22;9005;48.838;10.112;2024-03-23T04:14:36;9.40;67.50
17762;DHT22;9005;48.838;10.112;2024-03-23T04:17:03;9.70;67.10
17762;DHT22;9005;48.838;10.112;2024-03-23T04:19:29;9.20;68.10
17762;DHT22;9005;48.838;10.112;2024-03-23T04:21:55;9.10;68.60
17762;DHT22;9005;48.838;10.112;2024-03-23T04:24:22;9.00;68.90
17762;DHT22;9005;48.838;10.112;2024-03-23T04:26:51;8.90;69.10
17762;DHT22;9005;48.838;10.112;2024-03-23T04:29:17;8.90;69.70
17762;DHT22;9005;48.838;10.112;2024-03-23T04:31:44;8.90;69.70
17762;DHT22;9005;48.838;10.112;2024-03-23T04:34:10;8.90;70.30
17762;DHT22;9005;48.838;10.112;2024-03-23T04:36:36;9.00;70.20
17762;DHT22;9005;48.838;10.112;2024-03-23T04:39:02;9.00;70.30
17762;DHT22;9005;48.838;10.112;2024-03-23T04:41:30;9.00;70.20
17762;DHT22;9005;48.838;10.112;2024-03-23T04:43:57;9.00;70.10
17762;DHT22;9005;48.838;10.112;2024-03-23T04:46:24;9.00;69.60
17762;DHT22;9005;48.838;10.112;2024-03-23T04:48:50;8.90;69.80
17762;DHT22;9005;48.838;10.112;2024-03-23T04:51:20;8.80;70.20
17762;DHT22;9005;48.838;10.112;2024-03-23T04:53:48;8.60;71.10
17762;DHT22;9005;48.838;10.112;2024-03-23T04:56:13;8.60;71.30
17762;DHT22;9005;48.838;10.112;2024-03-23T04:58:41;8.50;71.60
17762;DHT22;9005;48.838;10.112;2024-03-23T05:01:07;8.50;71.90
17762;DHT22;9005;48.838;10.112;2024-03-23T05:03:34;8.50;72.30
17762;DHT22;9005;48.838;10.112;2024-03-23T05:06:00;8.50;72.50
17762;DHT22;9005;48.838;10.112;2024-03-23T05:08:27;8.50;72.50
17762;DHT22;9005;48.838;10.112;2024-03-23T05:10:53;8.50;72.70
17762;DHT22;9005;48.838;10.112;2024-03-23T05:13:19;8.50;72.70
17762;DHT22;9005;48.838;10.112;2024-03-23T05:15:52;8.50;72.70
17762;DHT22;9005;48.838;10.112;2024-03-23T05:18:18;8.50;72.90
17762;DHT22;9005;48.838;10.112;2024-03-23T05:20:45;8.50;72.90
17762;DHT22;9005;48.838;10.112;2024-03-23T05:23:10;8.50;73.10
17762;DHT22;9005;48.838;10.112;2024-03-23T05:25:37;8.60;72.90
17762;DHT22;9005;48.838;10.112;2024-03-23T05:28:03;8.70;72.90
17762;DHT22;9005;48.838;10.112;2024-03-23T05:30:30;8.80;72.70
17762;DHT22;9005;48.838;10.112;2024-03-23T05:32:58;9.00;72.00
17762;DHT22;9005;48.838;10.112;2024-03-23T05:35:24;9.10;70.50
17762;DHT22;9005;48.838;10.112;2024-03-23T05:37:50;9.30;69.80
17762;DHT22;9005;48.838;10.112;2024-03-23T05:40:17;9.40;70.10
17762;DHT22;9005;48.838;10.112;2024-03-23T05:42:42;10.00;68.80
17762;DHT22;9005;48.838;10.112;2024-03-23T05:45:09;9.60;70.10
17762;DHT22;9005;48.838;10.112;2024-03-23T05:47:35;9.90;70.80
17762;DHT22;9005;48.838;10.112;2024-03-23T05:50:03;9.40;72.40
17762;DHT22;9005;48.838;10.112;2024-03-23T05:52:29;9.20;75.20
17762;DHT22;9005;48.838;10.112;2024-03-23T05:54:56;8.90;80.10
17762;DHT22;9005;48.838;10.112;2024-03-23T05:57:22;8.40;83.40
17762;DHT22;9005;48.838;10.112;2024-03-23T05:59:48;7.80;87.60
17762;DHT22;9005;48.838;10.112;2024-03-23T06:02:14;7.80;88.00
17762;DHT22;9005;48.838;10.112;2024-03-23T06:04:41;7.60;88.70
17762;DHT22;9005;48.838;10.112;2024-03-23T06:07:08;7.50;89.80
17762;DHT22;9005;48.838;10.112;2024-03-23T06:09:39;7.50;90.40
17762;DHT22;9005;48.838;10.112;2024-03-23T06:12:05;7.40;90.30
17762;DHT22;9005;48.838;10.112;2024-03-23T06:14:32;7.40;89.00
17762;DHT22;9005;48.838;10.112;2024-03-23T06:16:58;7.40;89.70
17762;DHT22;9005;48.838;10.112;2024-03-23T06:19:25;7.30;90.20
17762;DHT22;9005;48.838;10.112;2024-03-23T06:21:53;7.30;90.50
17762;DHT22;9005;48.838;10.112;2024-03-23T06:24:21;7.30;90.40
17762;DHT22;9005;48.838;10.112;2024-03-23T06:26:46;7.30;90.80
17762;DHT22;9005;48.838;10.112;2024-03-23T06:29:13;7.30;89.60
17762;DHT22;9005;48.838;10.112;2024-03-23T06:31:39;7.30;89.30
17762;DHT22;9005;48.838;10.112;2024-03-23T06:34:06;7.30;88.90
17762;DHT22;9005;48.838;10.112;2024-03-23T06:36:31;7.30;88.70
17762;DHT22;9005;48.838;10.112;2024-03-23T06:38:58;7.30;88.20
17762;DHT22;9005;48.838;10.112;2024-03-23T06:41:25;7.20;87.40
17762;DHT22;9005;48.838;10.112;2024-03-23T06:43:52;7.10;86.60
17762;DHT22;9005;48.838;10.112;2024-03-23T06:46:18;6.90;87.70
17762;DHT22;9005;48.838;10.112;2024-03-23T06:48:45;6.90;86.80
17762;DHT22;9005;48.838;10.112;2024-03-23T06:51:10;6.80;87.70
17762;DHT22;9005;48.838;10.112;2024-03-23T06:53:37;6.80;88.20
17762;DHT22;9005;48.838;10.112;2024-03-23T06:56:03;6.80;88.40
17762;DHT22;9005;48.838;10.112;2024-03-23T06:58:32;6.80;88.40
17762;DHT22;9005;48.838;10.112;2024-03-23T07:00:58;6.80;87.70
17762;DHT22;9005;48.838;10.112;2024-03-23T07:03:25;6.80;88.70
17762;DHT22;9005;48.838;10.112;2024-03-23T07:05:51;6.70;88.40
17762;DHT22;9005;48.838;10.112;2024-03-23T07:08:18;6.70;88.50
17762;DHT22;9005;48.838;10.112;2024-03-23T07:10:47;6.70;88.00
17762;DHT22;9005;48.838;10.112;2024-03-23T07:13:14;6.60;89.30
17762;DHT22;9005;48.838;10.112;2024-03-23T07:15:41;6.50;89.80
17762;DHT22;9005;48.838;10.112;2024-03-23T07:18:08;6.50;89.70
17762;DHT22;9005;48.838;10.112;2024-03-23T07:20:33;6.50;90.30
17762;DHT22;9005;48.838;10.112;2024-03-23T07:23:00;6.60;89.60
17762;DHT22;9005;48.838;10.112;2024-03-23T07:25:26;6.60;89.70
17762;DHT22;9005;48.838;10.112;2024-03-23T07:27:54;6.60;89.70
17762;DHT22;9005;48.838;10.112;2024-03-23T07:30:20;6.60;89.60
17762;DHT22;9005;48.838;10.112;2024-03-23T07:32:48;6.60;89.20
17762;DHT22;9005;48.838;10.112;2024-03-23T07:35:14;6.60;89.20
17762;DHT22;9005;48.838;10.112;2024-03-23T07:37:41;6.60;88.70
17762;DHT22;9005;48.838;10.112;2024-03-23T07:40:09;6.60;88.50
17762;DHT22;9005;48.838;10.112;2024-03-23T07:42:37;6.60;88.30
17762;DHT22;9005;48.838;10.112;2024-03-23T07:45:03;6.60;88.00
17762;DHT22;9005;48.838;10.112;2024-03-23T07:47:30;6.70;87.20
17762;DHT22;9005;48.838;10.112;2024-03-23T07:49:58;6.70;87.30
17762;DHT22;9005;48.838;10.112;2024-03-23T07:52:27;6.70;85.40
17762;DHT22;9005;48.838;10.112;2024-03-23T07:54:53;6.70;85.50
17762;DHT22;9005;48.838;10.112;2024-03-23T07:57:19;6.70;85.80
17762;DHT22;9005;48.838;10.112;2024-03-23T07:59:45;6.70;84.20
17762;DHT22;9005;48.838;10.112;2024-03-23T08:02:12;6.70;83.60
17762;DHT22;9005;48.838;10.112;2024-03-23T08:04:38;6.70;84.10
17762;DHT22;9005;48.838;10.112;2024-03-23T08:07:06;6.70;82.20
17762;DHT22;9005;48.838;10.112;2024-03-23T08:09:31;6.70;82.20
17762;DHT22;9005;48.838;10.112;2024-03-23T08:11:58;6.70;81.70
17762;DHT22;9005;48.838;10.112;2024-03-23T08:14:24;6.70;81.80
17762;DHT22;9005;48.838;10.112;2024-03-23T08:16:50;6.70;81.60
17762;DHT22;9005;48.838;10.112;2024-03-23T08:19:16;6.70;81.10
17762;DHT22;9005;48.838;10.112;2024-03-23T08:21:43;6.80;81.00
17762;DHT22;9005;48.838;10.112;2024-03-23T08:24:10;6.80;80.90
17762;DHT22;9005;48.838;10.112;2024-03-23T08:26:37;6.80;80.50
17762;DHT22;9005;48.838;10.112;2024-03-23T08:29:03;6.80;80.10
17762;DHT22;9005;48.838;10.112;2024-03-23T08:31:30;6.70;80.40
17762;DHT22;9005;48.838;10.112;2024-03-23T08:33:56;6.60;80.80
17762;DHT22;9005;48.838;10.112;2024-03-23T08:36:22;6.50;80.20
17762;DHT22;9005;48.838;10.112;2024-03-23T08:38:49;6.50;80.50
17762;DHT22;9005;48.838;10.112;2024-03-23T08:41:20;6.50;80.10
17762;DHT22;9005;48.838;10.112;2024-03-23T08:43:46;6.50;80.00
17762;DHT22;9005;48.838;10.112;2024-03-23T08:46:14;6.60;80.50
17762;DHT22;9005;48.838;10.112;2024-03-23T08:48:42;6.60;81.40
17762;DHT22;9005;48.838;10.112;2024-03-23T08:51:10;6.50;81.70
17762;DHT22;9005;48.838;10.112;2024-03-23T08:53:37;6.30;81.50
17762;DHT22;9005;48.838;10.112;2024-03-23T08:56:05;6.10;81.90
17762;DHT22;9005;48.838;10.112;2024-03-23T08:58:33;5.80;83.30
17762;DHT22;9005;48.838;10.112;2024-03-23T09:01:03;5.60;86.10
17762;DHT22;9005;48.838;10.112;2024-03-23T09:03:29;5.50;88.20
17762;DHT22;9005;48.838;10.112;2024-03-23T09:05:56;5.30;89.50
17762;DHT22;9005;48.838;10.112;2024-03-23T09:08:23;5.20;88.20
17762;DHT22;9005;48.838;10.112;2024-03-23T09:10:51;5.00;88.60
17762;DHT22;9005;48.838;10.112;2024-03-23T09:13:17;4.90;89.10
17762;DHT22;9005;48.838;10.112;2024-03-23T09:15:48;5.20;88.00
17762;DHT22;9005;48.838;10.112;2024-03-23T09:18:13;4.70;89.20
17762;DHT22;9005;48.838;10.112;2024-03-23T09:20:40;4.70;89.60
17762;DHT22;9005;48.838;10.112;2024-03-23T09:23:06;4.70;90.30
17762;DHT22;9005;48.838;10.112;2024-03-23T09:25:36;4.70;90.60
17762;DHT22;9005;48.838;10.112;2024-03-23T09:28:02;4.60;91.20
17762;DHT22;9005;48.838;10.112;2024-03-23T09:30:28;4.70;90.80
17762;DHT22;9005;48.838;10.112;2024-03-23T09:32:55;4.80;89.70
17762;DHT22;9005;48.838;10.112;2024-03-23T09:35:22;4.90;88.70
17762;DHT22;9005;48.838;10.112;2024-03-23T09:37:48;4.90;86.90
17762;DHT22;9005;48.838;10.112;2024-03-23T09:40:15;5.00;86.60
17762;DHT22;9005;48.838;10.112;2024-03-23T09:42:42;5.20;87.30
17762;DHT22;9005;48.838;10.112;2024-03-23T09:45:17;5.40;86.30
17762;DHT22;9005;48.838;10.112;2024-03-23T09:47:43;5.50;83.50
17762;DHT22;9005;48.838;10.112;2024-03-23T09:50:13;5.80;84.70
17762;DHT22;9005;48.838;10.112;2024-03-23T09:52:39;5.50;84.20
17762;DHT22;9005;48.838;10.112;2024-03-23T09:55:08;5.50;83.20
17762;DHT22;9005;48.838;10.112;2024-03-23T09:57:34;5.40;82.40
17762;DHT22;9005;48.838;10.112;2024-03-23T10:00:01;5.20;82.80
17762;DHT22;9005;48.838;10.112;2024-03-23T10:02:26;5.00;84.00
17762;DHT22;9005;48.838;10.112;2024-03-23T10:04:54;4.90;86.40
17762;DHT22;9005;48.838;10.112;2024-03-23T10:07:21;4.70;85.80
17762;DHT22;9005;48.838;10.112;2024-03-23T10:09:48;4.70;87.50
17762;DHT22;9005;48.838;10.112;2024-03-23T10:12:18;4.60;86.60
17762;DHT22;9005;48.838;10.112;2024-03-23T10:14:45;4.60;86.80
17762;DHT22;9005;48.838;10.112;2024-03-23T10:17:16;4.80;87.10
17762;DHT22;9005;48.838;10.112;2024-03-23T10:19:44;4.80;85.20
17762;DHT22;9005;48.838;10.112;2024-03-23T10:22:13;4.70;85.90
17762;DHT22;9005;48.838;10.112;2024-03-23T10:24:41;4.70;85.50
17762;DHT22;9005;48.838;10.112;2024-03-23T10:27:07;5.20;85.50
17762;DHT22;9005;48.838;10.112;2024-03-23T10:29:34;5.50;85.80
17762;DHT22;9005;48.838;10.112;2024-03-23T10:32:09;5.80;83.40
17762;DHT22;9005;48.838;10.112;2024-03-23T10:34:37;6.00;82.40
17762;DHT22;9005;48.838;10.112;2024-03-23T10:37:03;6.00;81.10
17762;DHT22;9005;48.838;10.112;2024-03-23T10:39:34;6.20;77.00
17762;DHT22;9005;48.838;10.112;2024-03-23T10:42:02;6.20;76.30
17762;DHT22;9005;48.838;10.112;2024-03-23T10:44:30;6.50;77.60
17762;DHT22;9005;48.838;10.112;2024-03-23T10:46:57;7.20;71.30
17762;DHT22;9005;48.838;10.112;2024-03-23T10:49:28;7.00;69.70
17762;DHT22;9005;48.838;10.112;2024-03-23T10:51:56;7.40;69.40
17762;DHT22;9005;48.838;10.112;2024-03-23T10:54:24;7.80;67.20
17762;DHT22;9005;48.838;10.112;2024-03-23T10:56:54;8.20;67.70
17762;DHT22;9005;48.838;10.112;2024-03-23T10:59:23;8.90;67.50
17762;DHT22;9005;48.838;10.112;2024-03-23T11:01:56;9.30;63.10
17762;DHT22;9005;48.838;10.112;2024-03-23T11:04:33;9.40;65.50
17762;DHT22;9005;48.838;10.112;2024-03-23T11:06:59;9.40;60.80
17762;DHT22;9005;48.838;10.112;2024-03-23T11:09:41;9.10;62.30
17762;DHT22;9005;48.838;10.112;2024-03-23T11:12:29;9.30;59.80
17762;DHT22;9005;48.838;10.112;2024-03-23T11:15:01;9.20;59.50
17762;DHT22;9005;48.838;10.112;2024-03-23T11:17:27;9.00;59.80
17762;DHT22;9005;48.838;10.112;2024-03-23T11:19:56;8.70;58.10
17762;DHT22;9005;48.838;10.112;2024-03-23T11:22:42;8.20;60.20
17762;DHT22;9005;48.838;10.112;2024-03-23T11:25:16;8.10;61.30
17762;DHT22;9005;48.838;10.112;2024-03-23T11:27:43;8.10;60.20
17762;DHT22;9005;48.838;10.112;2024-03-23T11:30:16;7.80;62.90
17762;DHT22;9005;48.838;10.112;2024-03-23T11:32:43;7.50;62.60
17762;DHT22;9005;48.838;10.112;2024-03-23T11:35:10;7.20;62.10
17762;DHT22;9005;48.838;10.112;2024-03-23T11:37:39;7.20;63.70
17762;DHT22;9005;48.838;10.112;2024-03-23T11:40:18;7.20;63.80
17762;DHT22;9005;48.838;10.112;2024-03-23T11:42:44;6.80;67.20
17762;DHT22;9005;48.838;10.112;2024-03-23T11:45:12;6.30;69.30
17762;DHT22;9005;48.838;10.112;2024-03-23T11:47:39;5.60;72.20
17762;DHT22;9005;48.838;10.112;2024-03-23T11:50:06;5.00;74.70
17762;DHT22;9005;48.838;10.112;2024-03-23T11:52:32;4.30;77.90
17762;DHT22;9005;48.838;10.112;2024-03-23T11:55:05;3.80;82.50
17762;DHT22;9005;48.838;10.112;2024-03-23T11:57:33;3.60;84.10
17762;DHT22;9005;48.838;10.112;2024-03-23T12:00:00;3.60;85.30
17762;DHT22;9005;48.838;10.112;2024-03-23T12:02:26;3.60;85.10
17762;DHT22;9005;48.838;10.112;2024-03-23T12:04:54;3.60;86.30
17762;DHT22;9005;48.838;10.112;2024-03-23T12:07:20;3.70;86.60
17762;DHT22;9005;48.838;10.112;2024-03-23T12:09:49;3.70;87.30
17762;DHT22;9005;48.838;10.112;2024-03-23T12:12:27;3.60;86.90
17762;DHT22;9005;48.838;10.112;2024-03-23T12:15:02;3.40;88.40
17762;DHT22;9005;48.838;10.112;2024-03-23T12:17:28;3.50;90.20
17762;DHT22;9005;48.838;10.112;2024-03-23T12:19:56;3.70;88.50
17762;DHT22;9005;48.838;10.112;2024-03-23T12:22:22;4.00;89.10
17762;DHT22;9005;48.838;10.112;2024-03-23T12:24:50;4.10;87.00
17762;DHT22;9005;48.838;10.112;2024-03-23T12:27:16;4.10;86.00
17762;DHT22;9005;48.838;10.112;2024-03-23T12:29:42;4.30;88.50
17762;DHT22;9005;48.838;10.112;2024-03-23T12:32:09;4.60;87.80
17762;DHT22;9005;48.838;10.112;2024-03-23T12:34:35;4.90;85.30
17762;DHT22;9005;48.838;10.112;2024-03-23T12:37:03;5.00;80.60
17762;DHT22;9005;48.838;10.112;2024-03-23T12:39:29;5.10;77.20
17762;DHT22;9005;48.838;10.112;2024-03-23T12:41:55;5.20;76.60
17762;DHT22;9005;48.838;10.112;2024-03-23T12:44:22;5.80;76.80
17762;DHT22;9005;48.838;10.112;2024-03-23T12:46:48;6.10;73.30
17762;DHT22;9005;48.838;10.112;2024-03-23T12:49:14;6.50;74.30
17762;DHT22;9005;48.838;10.112;2024-03-23T12:51:48;7.20;72.90
17762;DHT22;9005;48.838;10.112;2024-03-23T12:54:21;7.50;69.30
17762;DHT22;9005;48.838;10.112;2024-03-23T12:56:46;7.50;66.70
17762;DHT22;9005;48.838;10.112;2024-03-23T12:59:13;7.30;66.90
17762;DHT22;9005;48.838;10.112;2024-03-23T13:01:39;7.20;67.90
17762;DHT22;9005;48.838;10.112;2024-03-23T13:04:06;7.00;65.00
17762;DHT22;9005;48.838;10.112;2024-03-23T13:06:31;6.80;68.20
17762;DHT22;9005;48.838;10.112;2024-03-23T13:08:59;6.50;69.60
17762;DHT22;9005;48.838;10.112;2024-03-23T13:11:26;6.20;70.20
17762;DHT22;9005;48.838;10.112;2024-03-23T13:13:53;5.70;70.50
17762;DHT22;9005;48.838;10.112;2024-03-23T13:16:20;5.90;72.20
17762;DHT22;9005;48.838;10.112;2024-03-23T13:18:46;6.20;72.30
17762;DHT22;9005;48.838;10.112;2024-03-23T13:21:12;6.50;70.20
17762;DHT22;9005;48.838;10.112;2024-03-23T13:23:39;6.90;65.80
17762;DHT22;9005;48.838;10.112;2024-03-23T13:26:07;7.40;64.50
17762;DHT22;9005;48.838;10.112;2024-03-23T13:28:35;7.50;62.20
17762;DHT22;9005;48.838;10.112;2024-03-23T13:31:01;7.50;62.50
17762;DHT22;9005;48.838;10.112;2024-03-23T13:33:29;7.70;60.80
17762;DHT22;9005;48.838;10.112;2024-03-23T13:35:55;8.00;61.00
17762;DHT22;9005;48.838;10.112;2024-03-23T13:38:22;7.70;60.70
17762;DHT22;9005;48.838;10.112;2024-03-23T13:40:52;8.30;61.20
17762;DHT22;9005;48.838;10.112;2024-03-23T13:43:19;9.20;58.70
17762;DHT22;9005;48.838;10.112;2024-03-23T13:45:46;9.80;56.40
17762;DHT22;9005;48.838;10.112;2024-03-23T13:48:13;10.30;57.90
17762;DHT22;9005;48.838;10.112;2024-03-23T13:50:40;10.30;57.00
17762;DHT22;9005;48.838;10.112;2024-03-23T13:53:06;10.50;52.20
17762;DHT22;9005;48.838;10.112;2024-03-23T13:55:33;10.50;52.20
17762;DHT22;9005;48.838;10.112;2024-03-23T13:58:00;10.00;53.50
17762;DHT22;9005;48.838;10.112;2024-03-23T14:00:26;9.90;54.40
17762;DHT22;9005;48.838;10.112;2024-03-23T14:02:54;9.70;54.20
17762;DHT22;9005;48.838;10.112;2024-03-23T14:05:19;9.80;53.80
17762;DHT22;9005;48.838;10.112;2024-03-23T14:07:46;9.50;54.70
17762;DHT22;9005;48.838;10.112;2024-03-23T14:10:12;9.70;53.90
17762;DHT22;9005;48.838;10.112;2024-03-23T14:12:39;10.00;53.30
17762;DHT22;9005;48.838;10.112;2024-03-23T14:15:05;10.00;52.30
17762;DHT22;9005;48.838;10.112;2024-03-23T14:17:32;9.90;51.90
17762;DHT22;9005;48.838;10.112;2024-03-23T14:19:59;9.70;53.00
17762;DHT22;9005;48.838;10.112;2024-03-23T14:22:26;9.90;53.10
17762;DHT22;9005;48.838;10.112;2024-03-23T14:24:52;10.20;51.80
17762;DHT22;9005;48.838;10.112;2024-03-23T14:27:19;10.10;51.80
17762;DHT22;9005;48.838;10.112;2024-03-23T14:29:46;9.10;53.90
17762;DHT22;9005;48.838;10.112;2024-03-23T14:32:13;9.20;55.40
17762;DHT22;9005;48.838;10.112;2024-03-23T14:34:38;9.70;53.00
17762;DHT22;9005;48.838;10.112;2024-03-23T14:37:07;9.90;51.50
17762;DHT22;9005;48.838;10.112;2024-03-23T14:39:32;9.70;51.40
17762;DHT22;9005;48.838;10.112;2024-03-23T14:42:00;9.40;52.10
17762;DHT22;9005;48.838;10.112;2024-03-23T14:44:26;8.70;54.30
17762;DHT22;9005;48.838;10.112;2024-03-23T14:46:53;8.60;55.10
17762;DHT22;9005;48.838;10.112;2024-03-23T14:49:19;8.70;56.40
17762;DHT22;9005;48.838;10.112;2024-03-23T14:51:46;9.00;55.70
17762;DHT22;9005;48.838;10.112;2024-03-23T14:54:13;9.20;54.00
17762;DHT22;9005;48.838;10.112;2024-03-23T14:56:40;8.70;54.20
17762;DHT22;9005;48.838;10.112;2024-03-23T14:59:06;7.90;55.90
17762;DHT22;9005;48.838;10.112;2024-03-23T15:01:33;7.40;60.00
17762;DHT22;9005;48.838;10.112;2024-03-23T15:03:59;6.50;66.00
17762;DHT22;9005;48.838;10.112;2024-03-23T15:06:26;4.50;72.30
17762;DHT22;9005;48.838;10.112;2024-03-23T15:08:51;3.30;80.10
17762;DHT22;9005;48.838;10.112;2024-03-23T15:11:21;2.70;83.20
17762;DHT22;9005;48.838;10.112;2024-03-23T15:13:49;2.60;85.50
17762;DHT22;9005;48.838;10.112;2024-03-23T15:16:17;2.50;87.50
17762;DHT22;9005;48.838;10.112;2024-03-23T15:18:43;2.70;87.40
17762;DHT22;9005;48.838;10.112;2024-03-23T15:21:10;2.70;87.40
17762;DHT22;9005;48.838;10.112;2024-03-23T15:23:37;2.60;88.00
17762;DHT22;9005;48.838;10.112;2024-03-23T15:26:04;2.60;87.60
17762;DHT22;9005;48.838;10.112;2024-03-23T15:28:32;2.50;88.30
17762;DHT22;9005;48.838;10.112;2024-03-23T15:31:07;2.30;87.90
17762;DHT22;9005;48.838;10.112;2024-03-23T15:33:34;2.30;89.60
17762;DHT22;9005;48.838;10.112;2024-03-23T15:36:01;2.90;92.00
17762;DHT22;9005;48.838;10.112;2024-03-23T15:38:27;3.50;91.80
17762;DHT22;9005;48.838;10.112;2024-03-23T15:40:54;4.10;92.40
17762;DHT22;9005;48.838;10.112;2024-03-23T15:43:20;4.70;91.50
17762;DHT22;9005;48.838;10.112;2024-03-23T15:45:55;5.10;86.60
17762;DHT22;9005;48.838;10.112;2024-03-23T15:48:20;5.30;83.40
17762;DHT22;9005;48.838;10.112;2024-03-23T15:50:50;5.40;82.80
17762;DHT22;9005;48.838;10.112;2024-03-23T15:53:18;5.10;78.60
17762;DHT22;9005;48.838;10.112;2024-03-23T15:55:44;4.90;78.90
17762;DHT22;9005;48.838;10.112;2024-03-23T15:58:10;4.80;78.10
17762;DHT22;9005;48.838;10.112;2024-03-23T16:00:37;5.00;78.50
17762;DHT22;9005;48.838;10.112;2024-03-23T16:03:04;5.40;76.40
17762;DHT22;9005;48.838;10.112;2024-03-23T16:05:31;5.80;76.30
17762;DHT22;9005;48.838;10.112;2024-03-23T16:07:56;6.40;72.80
17762;DHT22;9005;48.838;10.112;2024-03-23T16:10:23;6.50;72.00
17762;DHT22;9005;48.838;10.112;2024-03-23T16:12:49;6.40;70.00
17762;DHT22;9005;48.838;10.112;2024-03-23T16:15:16;6.60;70.20
17762;DHT22;9005;48.838;10.112;2024-03-23T16:17:41;6.60;69.40
17762;DHT22;9005;48.838;10.112;2024-03-23T16:20:10;6.60;70.20
17762;DHT22;9005;48.838;10.112;2024-03-23T16:22:36;6.70;68.30
17762;DHT22;9005;48.838;10.112;2024-03-23T16:25:04;6.70;67.70
17762;DHT22;9005;48.838;10.112;2024-03-23T16:27:30;7.00;69.30
17762;DHT22;9005;48.838;10.112;2024-03-23T16:29:57;6.80;64.60
17762;DHT22;9005;48.838;10.112;2024-03-23T16:32:22;6.40;65.90
17762;DHT22;9005;48.838;10.112;2024-03-23T16:34:50;6.00;67.10
17762;DHT22;9005;48.838;10.112;2024-03-23T16:37:17;6.00;67.10